East St Louis, Illinois
Current Conditions -  °F | °C
As of 7:31 PM on Wednesday 26 Nov 2014 (Local Time) from KCPS Reporting Station
Light Snow Light Snow  
Wind Chill: 33°   Ceiling: 400
Heat Index: 33°   Visibility: 1.2mi
Dew Point: 32°   Wind: 0mph
Humidity: 96%   Direction: NA
Pressure: 30.07"   Gusts: NA
Location:  38.6386°N, 90.1321°W
Report Text: KCPS 270131Z 00000KT 1 1/4SM -SN BR OVC004 01/00 A3007 RMK AO2 SNB08 P0002 T00060000
Loading
Personal Weather Stations






























Interactive Weather Map New forecast layout! Learn more

10-Day Weather Forecast

Advertisements
Track Severe Weather on mobile